Monday, November 20, 2017, 1:55 PM EST
Back to Local

KNYC, New York City Central Park

Location: New York, NY, United States Lat: 40.783
Local Time: 1:55 PM EST (18:55 GMT) Lon: -73.967
Time Zone: US/Eastern Elev: 157 ft

Show me the last for .
Show Decoded

2017-11-20 12:51 METAR KNYC 201751Z AUTO 29009G22KT 10SM BKN060 07/M07 A3003 RMK AO2 SLP162 60000
                 T00721067 10083 20022 57009 $ =
2017-11-20 11:51 METAR KNYC 201651Z AUTO 26009G19KT 200V310 10SM BKN055 07/M06 A3004 RMK AO2
                 SLP164 T00721056 $ =
2017-11-20 10:51 METAR KNYC 201551Z AUTO 29006KT 10SM BKN055 06/M06 A3005 RMK AO2 SLP169
                 T00561056 $ =
2017-11-20 09:51 METAR KNYC 201451Z AUTO 28008KT 10SM SCT046 BKN070 04/M04 A3006 RMK AO2 SLP171
                 60000 T00441044 51017 $ =
2017-11-20 04:51 METAR KNYC 200951Z AUTO VRB05G16KT 10SM BKN075 03/M04 A2995 RMK AO2 SLP134
                 T00281044 $ =
2017-11-20 03:51 METAR KNYC 200851Z AUTO 10SM FEW045 SCT080 03/M04 A2992 RMK AO2 SLP125 T00331039
                 53029 $ =
2017-11-20 02:51 METAR KNYC 200751Z AUTO 29008G15KT 10SM OVC075 04/M03 A2989 RMK AO2 SLP114
                 T00391033 $ =
2017-11-20 01:51 METAR KNYC 200651Z AUTO 28007G16KT 240V310 10SM OVC070 04/M03 A2986 RMK AO2
                 SLP104 T00441033 $ =
2017-11-20 00:51 METAR KNYC 200551Z AUTO 28006G16KT 10SM BKN065 BKN085 04/M03 A2984 RMK AO2
                 SLP095 60000 T00441028 10072 20033 51021 $ =
2017-11-19 23:51 METAR KNYC 200451Z AUTO 28011G17KT 10SM OVC090 04/M02 A2982 RMK AO2 SLP088
                 T00441017 401500033 $ =
2017-11-19 22:51 METAR KNYC 200351Z AUTO VRB04KT 10SM FEW024 SCT037 OVC060 03/01 A2980 RMK AO2
                 RAB24E35 SLP084 P0000 T00330006 $ =
2017-11-19 21:51 METAR KNYC 200251Z AUTO 29011G18KT 10SM FEW060 BKN090 06/M02 A2977 RMK AO2
                 SLP074 T00611017 51020 $ =
2017-11-19 20:51 METAR KNYC 200151Z AUTO 28008KT 10SM FEW055 BKN070 OVC085 07/M03 A2975 RMK AO2
                 SLP068 T00721033 $ =
2017-11-19 19:51 METAR KNYC 200051Z AUTO VRB03KT 10SM OVC075 07/M04 A2974 RMK AO2 SLP063
                 T00721039 $ =
2017-11-19 18:51 METAR KNYC 192351Z AUTO 29008KT 10SM SCT070 07/M04 A2971 RMK AO2 SLP053
                 T00721044 10106 20072 51032 $ =
2017-11-19 17:51 METAR KNYC 192251Z AUTO 30007KT 270V330 10SM OVC065 07/M04 A2969 RMK AO2 SLP045
                 T00721039 $ =
2017-11-19 16:51 METAR KNYC 192151Z AUTO VRB05G17KT 10SM CLR 07/M04 A2965 RMK AO2 SLP032
                 T00721039 $ =
2017-11-19 15:51 METAR KNYC 192051Z AUTO 31013G24KT 280V340 10SM CLR 08/M03 A2962 RMK AO2 PK WND
                 31030/2017 SLP021 T00781033 53032 $ =
2017-11-19 14:51 METAR KNYC 191951Z AUTO 29013G24KT 10SM OVC047 09/M02 A2958 RMK AO2 PK WND
                 29026/1859 SLP008 T00891022 $2 $ =

Support USWX by starting your Amazon purchase here.